sensor_id;sensor_type;location;lat;lon;timestamp;temperature;humidity
935;DHT22;454;53.254;10.400;2023-06-14T04:00:15;13.80;99.90
935;DHT22;454;53.254;10.400;2023-06-14T04:02:42;13.90;99.90
935;DHT22;454;53.254;10.400;2023-06-14T04:05:09;13.90;99.90
935;DHT22;454;53.254;10.400;2023-06-14T04:07:36;13.90;99.90
935;DHT22;454;53.254;10.400;2023-06-14T04:10:06;13.90;99.90
935;DHT22;454;53.254;10.400;2023-06-14T04:12:33;14.00;99.90
935;DHT22;454;53.254;10.400;2023-06-14T04:15:00;14.00;99.90
935;DHT22;454;53.254;10.400;2023-06-14T04:17:28;14.10;99.90
935;DHT22;454;53.254;10.400;2023-06-14T04:19:55;14.10;99.90
935;DHT22;454;53.254;10.400;2023-06-14T04:22:24;14.30;99.90
935;DHT22;454;53.254;10.400;2023-06-14T04:24:54;14.90;99.90
935;DHT22;454;53.254;10.400;2023-06-14T04:27:21;15.80;99.90
935;DHT22;454;53.254;10.400;2023-06-14T04:29:50;16.60;99.90
935;DHT22;454;53.254;10.400;2023-06-14T04:32:23;17.20;99.90
935;DHT22;454;53.254;10.400;2023-06-14T04:34:53;17.70;99.90
935;DHT22;454;53.254;10.400;2023-06-14T04:37:20;18.20;99.90
935;DHT22;454;53.254;10.400;2023-06-14T04:39:47;18.60;99.90
935;DHT22;454;53.254;10.400;2023-06-14T04:42:14;19.10;99.90
935;DHT22;454;53.254;10.400;2023-06-14T04:44:41;19.50;99.90
935;DHT22;454;53.254;10.400;2023-06-14T04:47:09;20.00;99.90
935;DHT22;454;53.254;10.400;2023-06-14T04:49:38;20.20;99.90
935;DHT22;454;53.254;10.400;2023-06-14T04:52:07;20.30;99.90
935;DHT22;454;53.254;10.400;2023-06-14T04:54:35;20.30;99.90
935;DHT22;454;53.254;10.400;2023-06-14T04:57:04;20.70;99.90
935;DHT22;454;53.254;10.400;2023-06-14T04:59:31;21.10;99.90
935;DHT22;454;53.254;10.400;2023-06-14T05:01:59;21.50;99.90
935;DHT22;454;53.254;10.400;2023-06-14T05:04:26;21.80;99.90
935;DHT22;454;53.254;10.400;2023-06-14T05:06:53;21.90;99.90
935;DHT22;454;53.254;10.400;2023-06-14T05:09:22;22.20;99.90
935;DHT22;454;53.254;10.400;2023-06-14T05:11:49;22.40;99.90
935;DHT22;454;53.254;10.400;2023-06-14T05:14:16;22.90;99.90
935;DHT22;454;53.254;10.400;2023-06-14T05:16:42;23.20;99.90
935;DHT22;454;53.254;10.400;2023-06-14T05:19:09;23.30;99.90
935;DHT22;454;53.254;10.400;2023-06-14T05:21:36;23.40;99.90
935;DHT22;454;53.254;10.400;2023-06-14T05:24:03;23.60;99.90
935;DHT22;454;53.254;10.400;2023-06-14T05:26:32;23.70;99.90
935;DHT22;454;53.254;10.400;2023-06-14T05:28:59;23.70;99.90
935;DHT22;454;53.254;10.400;2023-06-14T05:31:27;23.80;99.90
935;DHT22;454;53.254;10.400;2023-06-14T05:33:54;23.80;99.90
935;DHT22;454;53.254;10.400;2023-06-14T05:36:21;24.20;99.90
935;DHT22;454;53.254;10.400;2023-06-14T05:38:48;24.60;99.90
935;DHT22;454;53.254;10.400;2023-06-14T05:41:16;24.50;99.90
935;DHT22;454;53.254;10.400;2023-06-14T05:43:44;24.50;99.90
935;DHT22;454;53.254;10.400;2023-06-14T05:46:11;24.60;99.90
935;DHT22;454;53.254;10.400;2023-06-14T05:48:38;24.50;99.90
935;DHT22;454;53.254;10.400;2023-06-14T05:51:04;24.40;99.90
935;DHT22;454;53.254;10.400;2023-06-14T05:53:34;24.10;99.90
935;DHT22;454;53.254;10.400;2023-06-14T05:56:01;23.90;99.90
935;DHT22;454;53.254;10.400;2023-06-14T05:58:28;24.00;99.90
935;DHT22;454;53.254;10.400;2023-06-14T06:00:56;24.20;99.90
935;DHT22;454;53.254;10.400;2023-06-14T06:03:23;23.80;99.90
935;DHT22;454;53.254;10.400;2023-06-14T06:05:50;24.00;99.90
935;DHT22;454;53.254;10.400;2023-06-14T06:08:16;23.90;99.90
935;DHT22;454;53.254;10.400;2023-06-14T06:10:44;24.30;99.90
935;DHT22;454;53.254;10.400;2023-06-14T06:13:10;24.30;99.80
935;DHT22;454;53.254;10.400;2023-06-14T06:15:37;24.50;99.60
935;DHT22;454;53.254;10.400;2023-06-14T06:18:05;24.70;99.20
935;DHT22;454;53.254;10.400;2023-06-14T06:20:32;24.70;98.90
935;DHT22;454;53.254;10.400;2023-06-14T06:22:59;25.20;98.70
935;DHT22;454;53.254;10.400;2023-06-14T06:25:27;25.50;98.00
935;DHT22;454;53.254;10.400;2023-06-14T06:27:54;25.50;97.90
935;DHT22;454;53.254;10.400;2023-06-14T06:30:21;26.00;97.10
935;DHT22;454;53.254;10.400;2023-06-14T06:32:48;26.40;95.90
935;DHT22;454;53.254;10.400;2023-06-14T06:35:17;26.40;95.50
935;DHT22;454;53.254;10.400;2023-06-14T06:37:44;26.50;94.90
935;DHT22;454;53.254;10.400;2023-06-14T06:40:11;26.80;94.20
935;DHT22;454;53.254;10.400;2023-06-14T06:42:38;26.60;94.20
935;DHT22;454;53.254;10.400;2023-06-14T06:45:05;26.70;93.70
935;DHT22;454;53.254;10.400;2023-06-14T06:47:32;26.60;93.10
935;DHT22;454;53.254;10.400;2023-06-14T06:49:59;26.50;92.60
935;DHT22;454;53.254;10.400;2023-06-14T06:52:27;26.10;92.60
935;DHT22;454;53.254;10.400;2023-06-14T06:54:54;26.30;93.60
935;DHT22;454;53.254;10.400;2023-06-14T06:57:21;26.70;93.30
935;DHT22;454;53.254;10.400;2023-06-14T06:59:48;26.50;93.20
935;DHT22;454;53.254;10.400;2023-06-14T07:02:15;26.40;93.20
935;DHT22;454;53.254;10.400;2023-06-14T07:04:42;26.70;92.70
935;DHT22;454;53.254;10.400;2023-06-14T07:07:09;26.60;92.70
935;DHT22;454;53.254;10.400;2023-06-14T07:09:37;26.50;92.70
935;DHT22;454;53.254;10.400;2023-06-14T07:12:04;26.30;92.80
935;DHT22;454;53.254;10.400;2023-06-14T07:14:32;26.70;92.80
935;DHT22;454;53.254;10.400;2023-06-14T07:16:59;27.10;92.00
935;DHT22;454;53.254;10.400;2023-06-14T07:19:25;27.20;91.30
935;DHT22;454;53.254;10.400;2023-06-14T07:21:52;27.20;90.80
935;DHT22;454;53.254;10.400;2023-06-14T07:24:20;27.40;90.70
935;DHT22;454;53.254;10.400;2023-06-14T07:26:48;27.90;89.10
935;DHT22;454;53.254;10.400;2023-06-14T07:29:15;28.00;88.60
935;DHT22;454;53.254;10.400;2023-06-14T07:31:42;28.30;88.10
935;DHT22;454;53.254;10.400;2023-06-14T07:34:09;28.60;85.20
935;DHT22;454;53.254;10.400;2023-06-14T07:36:36;28.30;83.10
935;DHT22;454;53.254;10.400;2023-06-14T07:39:03;27.80;83.00
935;DHT22;454;53.254;10.400;2023-06-14T07:41:31;27.20;85.20
935;DHT22;454;53.254;10.400;2023-06-14T07:43:59;27.30;85.30
935;DHT22;454;53.254;10.400;2023-06-14T07:46:26;27.60;84.20
935;DHT22;454;53.254;10.400;2023-06-14T07:48:53;27.60;83.90
935;DHT22;454;53.254;10.400;2023-06-14T07:51:19;28.00;82.40
935;DHT22;454;53.254;10.400;2023-06-14T07:53:48;28.30;80.80
935;DHT22;454;53.254;10.400;2023-06-14T07:56:14;28.00;81.50
935;DHT22;454;53.254;10.400;2023-06-14T07:58:41;27.70;81.00
935;DHT22;454;53.254;10.400;2023-06-14T08:01:09;27.50;82.70
935;DHT22;454;53.254;10.400;2023-06-14T08:03:37;27.80;82.10
935;DHT22;454;53.254;10.400;2023-06-14T08:06:03;27.90;80.60
935;DHT22;454;53.254;10.400;2023-06-14T08:08:31;28.10;79.70
935;DHT22;454;53.254;10.400;2023-06-14T08:10:58;27.80;79.50
935;DHT22;454;53.254;10.400;2023-06-14T08:13:24;27.50;79.70
935;DHT22;454;53.254;10.400;2023-06-14T08:15:51;26.90;80.20
935;DHT22;454;53.254;10.400;2023-06-14T08:18:19;26.40;82.00
935;DHT22;454;53.254;10.400;2023-06-14T08:20:46;26.50;82.30
935;DHT22;454;53.254;10.400;2023-06-14T08:23:13;26.40;82.30
935;DHT22;454;53.254;10.400;2023-06-14T08:25:39;26.60;84.20
935;DHT22;454;53.254;10.400;2023-06-14T08:28:06;26.60;84.50
935;DHT22;454;53.254;10.400;2023-06-14T08:30:33;26.60;82.70
935;DHT22;454;53.254;10.400;2023-06-14T08:32:59;26.40;82.60
935;DHT22;454;53.254;10.400;2023-06-14T08:35:27;26.20;84.70
935;DHT22;454;53.254;10.400;2023-06-14T08:37:54;26.40;85.80
935;DHT22;454;53.254;10.400;2023-06-14T08:40:22;26.40;85.20
935;DHT22;454;53.254;10.400;2023-06-14T08:42:51;26.30;86.10
935;DHT22;454;53.254;10.400;2023-06-14T08:45:18;26.50;84.70
935;DHT22;454;53.254;10.400;2023-06-14T08:47:46;26.60;85.10
935;DHT22;454;53.254;10.400;2023-06-14T08:50:19;26.30;84.30
935;DHT22;454;53.254;10.400;2023-06-14T08:52:48;26.30;85.10
935;DHT22;454;53.254;10.400;2023-06-14T08:55:18;26.40;84.60
935;DHT22;454;53.254;10.400;2023-06-14T08:57:46;26.20;84.70
935;DHT22;454;53.254;10.400;2023-06-14T09:00:15;26.30;85.70
935;DHT22;454;53.254;10.400;2023-06-14T09:02:42;26.20;85.00
935;DHT22;454;53.254;10.400;2023-06-14T09:05:09;25.80;86.10
935;DHT22;454;53.254;10.400;2023-06-14T09:07:39;25.70;86.50
935;DHT22;454;53.254;10.400;2023-06-14T09:10:10;25.80;86.10
935;DHT22;454;53.254;10.400;2023-06-14T09:12:37;25.70;86.60
935;DHT22;454;53.254;10.400;2023-06-14T09:15:06;25.20;86.00
935;DHT22;454;53.254;10.400;2023-06-14T09:17:34;24.60;86.90
935;DHT22;454;53.254;10.400;2023-06-14T09:20:02;24.50;89.20
935;DHT22;454;53.254;10.400;2023-06-14T09:22:31;24.90;88.50
935;DHT22;454;53.254;10.400;2023-06-14T09:24:58;24.90;87.80
935;DHT22;454;53.254;10.400;2023-06-14T09:27:27;24.90;87.50
935;DHT22;454;53.254;10.400;2023-06-14T09:29:55;24.40;87.70
935;DHT22;454;53.254;10.400;2023-06-14T09:32:22;24.10;89.50
935;DHT22;454;53.254;10.400;2023-06-14T09:34:49;24.40;87.80
935;DHT22;454;53.254;10.400;2023-06-14T09:37:27;24.70;87.30
935;DHT22;454;53.254;10.400;2023-06-14T09:39:54;24.70;85.50
935;DHT22;454;53.254;10.400;2023-06-14T09:42:21;24.30;87.40
935;DHT22;454;53.254;10.400;2023-06-14T09:44:54;24.30;87.80
935;DHT22;454;53.254;10.400;2023-06-14T09:47:21;24.50;88.00
935;DHT22;454;53.254;10.400;2023-06-14T09:49:49;24.80;87.10
935;DHT22;454;53.254;10.400;2023-06-14T09:52:18;24.60;86.10
935;DHT22;454;53.254;10.400;2023-06-14T09:54:45;24.70;85.80
935;DHT22;454;53.254;10.400;2023-06-14T09:57:14;24.80;84.90
935;DHT22;454;53.254;10.400;2023-06-14T09:59:43;24.50;84.40
935;DHT22;454;53.254;10.400;2023-06-14T10:02:25;24.20;86.30
935;DHT22;454;53.254;10.400;2023-06-14T10:04:58;24.30;85.60
935;DHT22;454;53.254;10.400;2023-06-14T10:07:26;24.10;85.50
935;DHT22;454;53.254;10.400;2023-06-14T10:09:56;24.30;86.00
935;DHT22;454;53.254;10.400;2023-06-14T10:12:23;24.30;86.30
935;DHT22;454;53.254;10.400;2023-06-14T10:14:51;24.60;84.50
935;DHT22;454;53.254;10.400;2023-06-14T10:17:26;24.60;84.40
935;DHT22;454;53.254;10.400;2023-06-14T10:20:07;24.60;83.80
935;DHT22;454;53.254;10.400;2023-06-14T10:22:43;24.50;84.00
935;DHT22;454;53.254;10.400;2023-06-14T10:25:13;24.30;83.50
935;DHT22;454;53.254;10.400;2023-06-14T10:27:52;24.20;84.10
935;DHT22;454;53.254;10.400;2023-06-14T10:30:25;24.20;84.80
935;DHT22;454;53.254;10.400;2023-06-14T10:33:06;24.20;84.70
935;DHT22;454;53.254;10.400;2023-06-14T10:35:35;24.50;84.90
935;DHT22;454;53.254;10.400;2023-06-14T10:38:08;24.30;83.30
935;DHT22;454;53.254;10.400;2023-06-14T10:40:36;24.30;83.60
935;DHT22;454;53.254;10.400;2023-06-14T10:43:20;24.30;82.20
935;DHT22;454;53.254;10.400;2023-06-14T10:46:16;24.40;81.80
935;DHT22;454;53.254;10.400;2023-06-14T10:48:44;24.70;81.10
935;DHT22;454;53.254;10.400;2023-06-14T10:51:16;24.70;80.20
935;DHT22;454;53.254;10.400;2023-06-14T10:53:46;24.50;81.40
935;DHT22;454;53.254;10.400;2023-06-14T10:56:23;24.50;81.60
935;DHT22;454;53.254;10.400;2023-06-14T10:58:51;24.40;82.00
935;DHT22;454;53.254;10.400;2023-06-14T11:01:23;24.20;81.90
935;DHT22;454;53.254;10.400;2023-06-14T11:03:56;24.10;81.20
935;DHT22;454;53.254;10.400;2023-06-14T11:06:25;23.90;81.00
935;DHT22;454;53.254;10.400;2023-06-14T11:11:58;23.80;80.40
935;DHT22;454;53.254;10.400;2023-06-14T11:14:26;23.90;81.40
935;DHT22;454;53.254;10.400;2023-06-14T11:16:55;24.10;81.90
935;DHT22;454;53.254;10.400;2023-06-14T11:19:24;24.40;82.20
935;DHT22;454;53.254;10.400;2023-06-14T11:21:54;24.50;81.80
935;DHT22;454;53.254;10.400;2023-06-14T11:24:20;24.40;81.30
935;DHT22;454;53.254;10.400;2023-06-14T11:26:47;24.50;81.10
935;DHT22;454;53.254;10.400;2023-06-14T11:29:15;24.60;80.00
935;DHT22;454;53.254;10.400;2023-06-14T11:31:43;24.80;79.50
935;DHT22;454;53.254;10.400;2023-06-14T11:34:12;24.70;79.70
935;DHT22;454;53.254;10.400;2023-06-14T11:36:40;24.60;80.20
935;DHT22;454;53.254;10.400;2023-06-14T11:39:08;24.70;79.50
935;DHT22;454;53.254;10.400;2023-06-14T11:41:37;24.60;79.50
935;DHT22;454;53.254;10.400;2023-06-14T11:44:04;24.30;79.20
935;DHT22;454;53.254;10.400;2023-06-14T11:46:31;24.50;81.10
935;DHT22;454;53.254;10.400;2023-06-14T11:48:58;24.90;78.70
935;DHT22;454;53.254;10.400;2023-06-14T11:51:28;24.90;78.80
935;DHT22;454;53.254;10.400;2023-06-14T11:53:56;24.60;79.70
935;DHT22;454;53.254;10.400;2023-06-14T11:56:23;24.40;79.40
935;DHT22;454;53.254;10.400;2023-06-14T11:58:50;24.30;80.10
935;DHT22;454;53.254;10.400;2023-06-14T12:01:17;24.10;79.30
935;DHT22;454;53.254;10.400;2023-06-14T12:03:48;23.90;78.90
935;DHT22;454;53.254;10.400;2023-06-14T12:06:15;24.00;80.10
935;DHT22;454;53.254;10.400;2023-06-14T12:08:43;24.30;79.90
935;DHT22;454;53.254;10.400;2023-06-14T12:11:13;24.60;78.70
935;DHT22;454;53.254;10.400;2023-06-14T12:13:41;24.90;78.40
935;DHT22;454;53.254;10.400;2023-06-14T12:16:08;25.00;78.10
935;DHT22;454;53.254;10.400;2023-06-14T12:18:36;25.00;75.70
935;DHT22;454;53.254;10.400;2023-06-14T12:21:04;24.80;77.60
935;DHT22;454;53.254;10.400;2023-06-14T12:23:45;24.90;77.10
935;DHT22;454;53.254;10.400;2023-06-14T12:26:17;25.00;77.50
935;DHT22;454;53.254;10.400;2023-06-14T12:28:45;25.10;76.90
935;DHT22;454;53.254;10.400;2023-06-14T12:31:13;25.50;75.50
935;DHT22;454;53.254;10.400;2023-06-14T12:33:41;25.60;75.70
935;DHT22;454;53.254;10.400;2023-06-14T12:36:09;25.80;74.90
935;DHT22;454;53.254;10.400;2023-06-14T12:38:36;25.60;73.20
935;DHT22;454;53.254;10.400;2023-06-14T12:41:03;25.40;73.50
935;DHT22;454;53.254;10.400;2023-06-14T12:43:31;25.50;72.70
935;DHT22;454;53.254;10.400;2023-06-14T12:45:58;25.50;71.90
935;DHT22;454;53.254;10.400;2023-06-14T12:48:25;25.40;72.40
935;DHT22;454;53.254;10.400;2023-06-14T12:50:52;25.60;73.50
935;DHT22;454;53.254;10.400;2023-06-14T12:53:19;25.80;72.10
935;DHT22;454;53.254;10.400;2023-06-14T12:55:46;25.70;71.90
935;DHT22;454;53.254;10.400;2023-06-14T12:58:13;25.60;72.00
935;DHT22;454;53.254;10.400;2023-06-14T13:00:41;25.40;72.60
935;DHT22;454;53.254;10.400;2023-06-14T13:03:10;25.50;72.80
935;DHT22;454;53.254;10.400;2023-06-14T13:05:36;25.70;72.70
935;DHT22;454;53.254;10.400;2023-06-14T13:08:06;25.90;71.60
935;DHT22;454;53.254;10.400;2023-06-14T13:10:34;26.00;71.00
935;DHT22;454;53.254;10.400;2023-06-14T13:13:00;25.90;69.90
935;DHT22;454;53.254;10.400;2023-06-14T13:15:28;26.00;68.60
935;DHT22;454;53.254;10.400;2023-06-14T13:17:56;26.20;70.40
935;DHT22;454;53.254;10.400;2023-06-14T13:20:23;26.10;67.50
935;DHT22;454;53.254;10.400;2023-06-14T13:22:49;26.00;67.80
935;DHT22;454;53.254;10.400;2023-06-14T13:25:16;26.20;69.70
935;DHT22;454;53.254;10.400;2023-06-14T13:27:43;26.50;68.60
935;DHT22;454;53.254;10.400;2023-06-14T13:30:10;26.50;68.20
935;DHT22;454;53.254;10.400;2023-06-14T13:32:37;26.40;66.90
935;DHT22;454;53.254;10.400;2023-06-14T13:35:06;26.20;67.00
935;DHT22;454;53.254;10.400;2023-06-14T13:37:33;26.00;66.40
935;DHT22;454;53.254;10.400;2023-06-14T13:39:59;25.60;66.40
935;DHT22;454;53.254;10.400;2023-06-14T13:42:27;25.50;68.10
935;DHT22;454;53.254;10.400;2023-06-14T13:44:54;25.50;67.80
935;DHT22;454;53.254;10.400;2023-06-14T13:47:21;25.50;69.30
935;DHT22;454;53.254;10.400;2023-06-14T13:49:48;25.80;67.50
935;DHT22;454;53.254;10.400;2023-06-14T13:52:16;25.70;66.90
935;DHT22;454;53.254;10.400;2023-06-14T13:54:42;25.60;67.70
935;DHT22;454;53.254;10.400;2023-06-14T13:57:09;25.60;66.40
935;DHT22;454;53.254;10.400;2023-06-14T13:59:38;26.00;64.50
935;DHT22;454;53.254;10.400;2023-06-14T14:02:05;26.20;65.00
935;DHT22;454;53.254;10.400;2023-06-14T14:04:32;26.10;65.60
935;DHT22;454;53.254;10.400;2023-06-14T14:06:59;26.20;65.00
935;DHT22;454;53.254;10.400;2023-06-14T14:09:27;26.40;65.00
935;DHT22;454;53.254;10.400;2023-06-14T14:11:54;26.50;67.30
935;DHT22;454;53.254;10.400;2023-06-14T14:14:21;26.40;66.70
935;DHT22;454;53.254;10.400;2023-06-14T14:16:49;26.20;67.50
935;DHT22;454;53.254;10.400;2023-06-14T14:19:16;26.10;68.00
935;DHT22;454;53.254;10.400;2023-06-14T14:21:44;25.90;69.30
935;DHT22;454;53.254;10.400;2023-06-14T14:24:10;25.60;70.00
935;DHT22;454;53.254;10.400;2023-06-14T14:26:39;25.60;70.90
935;DHT22;454;53.254;10.400;2023-06-14T14:29:06;25.70;71.40
935;DHT22;454;53.254;10.400;2023-06-14T14:31:32;25.80;72.00
935;DHT22;454;53.254;10.400;2023-06-14T14:33:59;26.00;72.40
935;DHT22;454;53.254;10.400;2023-06-14T14:36:25;25.90;73.70
935;DHT22;454;53.254;10.400;2023-06-14T14:38:52;25.50;75.50
935;DHT22;454;53.254;10.400;2023-06-14T14:41:19;25.20;75.90
935;DHT22;454;53.254;10.400;2023-06-14T14:43:47;24.90;76.20
935;DHT22;454;53.254;10.400;2023-06-14T14:46:14;24.70;75.40
935;DHT22;454;53.254;10.400;2023-06-14T14:48:42;24.60;76.00
935;DHT22;454;53.254;10.400;2023-06-14T14:51:09;24.50;76.80
935;DHT22;454;53.254;10.400;2023-06-14T14:53:35;24.60;77.30
935;DHT22;454;53.254;10.400;2023-06-14T14:56:02;24.60;76.40
935;DHT22;454;53.254;10.400;2023-06-14T14:58:29;24.80;75.90
935;DHT22;454;53.254;10.400;2023-06-14T15:00:57;25.10;74.90
935;DHT22;454;53.254;10.400;2023-06-14T15:03:24;25.30;75.50
935;DHT22;454;53.254;10.400;2023-06-14T15:05:50;25.60;73.10
935;DHT22;454;53.254;10.400;2023-06-14T15:08:17;25.60;68.80
935;DHT22;454;53.254;10.400;2023-06-14T15:10:44;25.70;68.10
935;DHT22;454;53.254;10.400;2023-06-14T15:13:12;26.00;67.50
935;DHT22;454;53.254;10.400;2023-06-14T15:15:39;26.10;66.40
935;DHT22;454;53.254;10.400;2023-06-14T15:18:07;25.80;70.60
935;DHT22;454;53.254;10.400;2023-06-14T15:20:35;25.50;74.20
935;DHT22;454;53.254;10.400;2023-06-14T15:23:01;25.10;76.10
935;DHT22;454;53.254;10.400;2023-06-14T15:25:28;24.90;77.60
935;DHT22;454;53.254;10.400;2023-06-14T15:27:55;24.70;77.60
935;DHT22;454;53.254;10.400;2023-06-14T15:30:22;24.50;78.20
935;DHT22;454;53.254;10.400;2023-06-14T15:32:49;24.30;78.30
935;DHT22;454;53.254;10.400;2023-06-14T15:35:18;24.20;79.20
935;DHT22;454;53.254;10.400;2023-06-14T15:37:44;24.10;79.80
935;DHT22;454;53.254;10.400;2023-06-14T15:40:12;24.40;80.80
935;DHT22;454;53.254;10.400;2023-06-14T15:42:38;24.60;78.90
935;DHT22;454;53.254;10.400;2023-06-14T15:45:06;24.70;78.90
935;DHT22;454;53.254;10.400;2023-06-14T15:47:33;24.70;77.50
935;DHT22;454;53.254;10.400;2023-06-14T15:50:00;24.70;76.50
935;DHT22;454;53.254;10.400;2023-06-14T15:52:28;24.70;77.10
935;DHT22;454;53.254;10.400;2023-06-14T15:54:54;24.80;76.60
935;DHT22;454;53.254;10.400;2023-06-14T15:57:21;24.70;75.70
935;DHT22;454;53.254;10.400;2023-06-14T15:59:48;24.80;76.80
935;DHT22;454;53.254;10.400;2023-06-14T16:02:14;24.80;76.30
935;DHT22;454;53.254;10.400;2023-06-14T16:04:41;24.50;75.80
935;DHT22;454;53.254;10.400;2023-06-14T16:07:08;24.20;76.20
935;DHT22;454;53.254;10.400;2023-06-14T16:09:36;24.20;76.80
935;DHT22;454;53.254;10.400;2023-06-14T16:12:03;24.40;76.70
935;DHT22;454;53.254;10.400;2023-06-14T16:14:30;24.50;76.20
935;DHT22;454;53.254;10.400;2023-06-14T16:16:57;24.50;75.30
935;DHT22;454;53.254;10.400;2023-06-14T16:19:24;24.50;75.90
935;DHT22;454;53.254;10.400;2023-06-14T16:21:50;24.70;75.40
935;DHT22;454;53.254;10.400;2023-06-14T16:24:17;24.60;74.90
935;DHT22;454;53.254;10.400;2023-06-14T16:26:45;24.50;75.10
935;DHT22;454;53.254;10.400;2023-06-14T16:29:12;24.40;75.50
935;DHT22;454;53.254;10.400;2023-06-14T16:31:39;24.30;75.40
935;DHT22;454;53.254;10.400;2023-06-14T16:34:06;24.20;74.90
935;DHT22;454;53.254;10.400;2023-06-14T16:36:36;24.30;75.70
935;DHT22;454;53.254;10.400;2023-06-14T16:39:03;24.40;75.20
935;DHT22;454;53.254;10.400;2023-06-14T16:41:30;24.50;74.40
935;DHT22;454;53.254;10.400;2023-06-14T16:43:58;24.30;73.80
935;DHT22;454;53.254;10.400;2023-06-14T16:46:29;24.20;74.10
935;DHT22;454;53.254;10.400;2023-06-14T16:48:56;24.10;73.60
935;DHT22;454;53.254;10.400;2023-06-14T16:51:23;24.10;74.40
935;DHT22;454;53.254;10.400;2023-06-14T16:53:50;24.20;74.30
935;DHT22;454;53.254;10.400;2023-06-14T16:56:17;24.10;74.30
935;DHT22;454;53.254;10.400;2023-06-14T16:58:43;24.20;74.40
935;DHT22;454;53.254;10.400;2023-06-14T17:01:12;24.30;74.30
935;DHT22;454;53.254;10.400;2023-06-14T17:03:38;24.30;74.40
935;DHT22;454;53.254;10.400;2023-06-14T17:06:05;24.30;73.50
935;DHT22;454;53.254;10.400;2023-06-14T17:08:32;24.20;73.20
935;DHT22;454;53.254;10.400;2023-06-14T17:10:59;24.10;73.90
935;DHT22;454;53.254;10.400;2023-06-14T17:13:26;24.10;73.00
935;DHT22;454;53.254;10.400;2023-06-14T17:15:52;23.90;73.00
935;DHT22;454;53.254;10.400;2023-06-14T17:18:20;23.90;73.40
935;DHT22;454;53.254;10.400;2023-06-14T17:20:47;23.70;73.20
935;DHT22;454;53.254;10.400;2023-06-14T17:23:14;23.60;73.80
935;DHT22;454;53.254;10.400;2023-06-14T17:25:40;23.70;73.90
935;DHT22;454;53.254;10.400;2023-06-14T17:28:07;23.70;73.30
935;DHT22;454;53.254;10.400;2023-06-14T17:30:34;23.70;73.30
935;DHT22;454;53.254;10.400;2023-06-14T17:33:01;23.60;73.90
935;DHT22;454;53.254;10.400;2023-06-14T17:35:30;23.70;73.80
935;DHT22;454;53.254;10.400;2023-06-14T17:37:57;23.60;73.50
935;DHT22;454;53.254;10.400;2023-06-14T17:40:24;23.60;73.10
935;DHT22;454;53.254;10.400;2023-06-14T17:42:51;23.50;73.50
935;DHT22;454;53.254;10.400;2023-06-14T17:45:18;23.40;73.90
935;DHT22;454;53.254;10.400;2023-06-14T17:47:45;23.50;73.50
935;DHT22;454;53.254;10.400;2023-06-14T17:50:11;23.40;73.30
935;DHT22;454;53.254;10.400;2023-06-14T17:52:39;23.40;73.30
935;DHT22;454;53.254;10.400;2023-06-14T17:55:07;23.40;72.40
935;DHT22;454;53.254;10.400;2023-06-14T17:57:33;23.30;73.20
935;DHT22;454;53.254;10.400;2023-06-14T18:00:00;23.20;73.40
935;DHT22;454;53.254;10.400;2023-06-14T18:02:27;23.20;72.80
935;DHT22;454;53.254;10.400;2023-06-14T18:04:54;23.20;73.30
935;DHT22;454;53.254;10.400;2023-06-14T18:07:20;23.00;73.10
935;DHT22;454;53.254;10.400;2023-06-14T18:09:48;22.90;73.40
935;DHT22;454;53.254;10.400;2023-06-14T18:12:15;22.80;73.60
935;DHT22;454;53.254;10.400;2023-06-14T18:14:42;22.80;73.80
935;DHT22;454;53.254;10.400;2023-06-14T18:17:08;22.80;73.70
935;DHT22;454;53.254;10.400;2023-06-14T18:19:35;22.70;73.30
935;DHT22;454;53.254;10.400;2023-06-14T18:22:03;22.70;73.70
935;DHT22;454;53.254;10.400;2023-06-14T18:24:30;22.50;73.70
935;DHT22;454;53.254;10.400;2023-06-14T18:26:59;22.50;74.00
935;DHT22;454;53.254;10.400;2023-06-14T18:29:26;22.40;74.70
935;DHT22;454;53.254;10.400;2023-06-14T18:31:53;22.30;74.00
935;DHT22;454;53.254;10.400;2023-06-14T18:34:19;22.30;74.80
935;DHT22;454;53.254;10.400;2023-06-14T18:36:47;22.20;74.90
935;DHT22;454;53.254;10.400;2023-06-14T18:39:14;22.20;75.40
935;DHT22;454;53.254;10.400;2023-06-14T18:41:41;22.10;75.30
935;DHT22;454;53.254;10.400;2023-06-14T18:44:09;22.00;75.50
935;DHT22;454;53.254;10.400;2023-06-14T18:46:35;21.90;75.30
935;DHT22;454;53.254;10.400;2023-06-14T18:49:03;21.90;75.90
935;DHT22;454;53.254;10.400;2023-06-14T18:51:30;21.80;75.70
935;DHT22;454;53.254;10.400;2023-06-14T18:53:59;21.70;76.30
935;DHT22;454;53.254;10.400;2023-06-14T18:56:26;21.70;76.80
935;DHT22;454;53.254;10.400;2023-06-14T18:58:55;21.60;76.60
935;DHT22;454;53.254;10.400;2023-06-14T19:01:23;21.60;77.20
935;DHT22;454;53.254;10.400;2023-06-14T19:03:49;21.50;77.10
935;DHT22;454;53.254;10.400;2023-06-14T19:06:16;21.40;77.50
935;DHT22;454;53.254;10.400;2023-06-14T19:08:43;21.40;77.80
935;DHT22;454;53.254;10.400;2023-06-14T19:11:12;21.30;78.20
935;DHT22;454;53.254;10.400;2023-06-14T19:13:39;21.30;78.50
935;DHT22;454;53.254;10.400;2023-06-14T19:16:06;21.20;78.70
935;DHT22;454;53.254;10.400;2023-06-14T19:18:34;21.20;78.90
935;DHT22;454;53.254;10.400;2023-06-14T19:21:01;21.10;79.50
935;DHT22;454;53.254;10.400;2023-06-14T19:23:28;21.00;79.50
935;DHT22;454;53.254;10.400;2023-06-14T19:25:55;20.90;79.60
935;DHT22;454;53.254;10.400;2023-06-14T19:28:21;20.90;80.00
935;DHT22;454;53.254;10.400;2023-06-14T19:30:49;20.90;80.10
935;DHT22;454;53.254;10.400;2023-06-14T19:33:15;20.80;80.20
935;DHT22;454;53.254;10.400;2023-06-14T19:35:44;20.70;80.40
935;DHT22;454;53.254;10.400;2023-06-14T19:38:10;20.70;80.60
935;DHT22;454;53.254;10.400;2023-06-14T19:40:38;20.60;81.00
935;DHT22;454;53.254;10.400;2023-06-14T19:43:05;20.50;81.10
935;DHT22;454;53.254;10.400;2023-06-14T19:45:32;20.50;81.30
935;DHT22;454;53.254;10.400;2023-06-14T19:47:59;20.30;81.50
935;DHT22;454;53.254;10.400;2023-06-14T19:50:26;20.30;81.80
935;DHT22;454;53.254;10.400;2023-06-14T19:52:54;20.30;82.10
935;DHT22;454;53.254;10.400;2023-06-14T19:55:21;20.20;82.00
935;DHT22;454;53.254;10.400;2023-06-14T19:57:47;20.20;82.30
935;DHT22;454;53.254;10.400;2023-06-14T20:00:14;20.10;82.60
935;DHT22;454;53.254;10.400;2023-06-14T20:02:41;20.00;82.70
935;DHT22;454;53.254;10.400;2023-06-14T20:05:08;20.00;82.90
935;DHT22;454;53.254;10.400;2023-06-14T20:07:35;19.90;83.10
935;DHT22;454;53.254;10.400;2023-06-14T20:10:04;19.90;83.40
935;DHT22;454;53.254;10.400;2023-06-14T20:12:30;19.80;83.60
935;DHT22;454;53.254;10.400;2023-06-14T20:14:57;19.80;83.80
935;DHT22;454;53.254;10.400;2023-06-14T20:17:24;19.70;84.10
935;DHT22;454;53.254;10.400;2023-06-14T20:19:50;19.60;84.20
935;DHT22;454;53.254;10.400;2023-06-14T20:22:18;19.60;84.80